createdAt,value
2018-07-17T00:00:40.383Z,22.75
2018-07-17T00:01:50.228Z,22.77
2018-07-17T00:02:40.343Z,22.76
2018-07-17T00:03:40.281Z,22.76
2018-07-17T00:04:40.457Z,22.76
2018-07-17T00:05:40.341Z,22.76
2018-07-17T00:06:40.138Z,22.76
2018-07-17T00:07:40.423Z,22.76
2018-07-17T00:08:40.296Z,22.76
2018-07-17T00:09:40.374Z,22.75
2018-07-17T00:10:40.469Z,22.75
2018-07-17T00:11:40.583Z,22.76
2018-07-17T00:12:40.532Z,22.76
2018-07-17T00:13:40.139Z,22.75
2018-07-17T00:14:40.456Z,22.75
2018-07-17T00:15:40.426Z,22.76
2018-07-17T00:16:40.269Z,22.76
2018-07-17T00:17:40.373Z,22.76
2018-07-17T00:18:40.308Z,22.75
2018-07-17T00:19:40.297Z,22.75
2018-07-17T00:20:40.181Z,22.76
2018-07-17T00:21:40.496Z,22.75
2018-07-17T00:22:40.418Z,22.75
2018-07-17T00:23:40.486Z,22.76
2018-07-17T00:24:40.289Z,22.75
2018-07-17T00:25:40.413Z,22.74
2018-07-17T00:26:40.492Z,22.75
2018-07-17T00:27:40.255Z,22.75
2018-07-17T00:28:40.387Z,22.75
2018-07-17T00:29:40.396Z,22.75
2018-07-17T00:30:40.400Z,22.75
2018-07-17T00:31:40.395Z,22.76
2018-07-17T00:32:40.492Z,22.75
2018-07-17T00:33:40.320Z,22.74
2018-07-17T00:34:40.167Z,22.75
2018-07-17T00:35:40.380Z,22.74
2018-07-17T00:36:40.155Z,22.74
2018-07-17T00:37:40.373Z,22.74
2018-07-17T00:38:40.408Z,22.74
2018-07-17T00:39:40.457Z,22.74
2018-07-17T00:40:40.409Z,22.75
2018-07-17T00:41:40.535Z,22.74
2018-07-17T00:42:40.357Z,22.73
2018-07-17T00:43:40.167Z,22.74
2018-07-17T00:44:40.297Z,22.75
2018-07-17T00:45:40.349Z,22.74
2018-07-17T00:46:40.360Z,22.74
2018-07-17T00:47:40.445Z,22.75
2018-07-17T00:48:40.283Z,22.74
2018-07-17T00:49:40.328Z,22.74
2018-07-17T00:50:40.123Z,22.74
2018-07-17T00:51:40.311Z,22.73
2018-07-17T00:52:40.260Z,22.73
2018-07-17T00:53:40.341Z,22.74
2018-07-17T00:54:40.369Z,22.73
2018-07-17T00:55:40.390Z,22.73
2018-07-17T00:56:40.563Z,22.74
2018-07-17T00:57:40.167Z,22.74
2018-07-17T00:58:40.710Z,22.73
2018-07-17T00:59:40.322Z,22.72
2018-07-17T01:00:40.301Z,22.73
2018-07-17T01:01:40.304Z,22.73
2018-07-17T01:02:40.508Z,22.73
2018-07-17T01:03:40.300Z,22.73
2018-07-17T01:04:40.488Z,22.73
2018-07-17T01:05:40.206Z,22.73
2018-07-17T01:06:50.377Z,22.73
2018-07-17T01:07:40.204Z,22.73
2018-07-17T01:08:40.575Z,22.73
2018-07-17T01:09:40.526Z,22.72
2018-07-17T01:10:40.259Z,22.74
2018-07-17T01:11:40.152Z,22.72
2018-07-17T01:12:40.376Z,22.72
2018-07-17T01:13:40.423Z,22.72
2018-07-17T01:14:40.353Z,22.73
2018-07-17T01:15:40.200Z,22.72
2018-07-17T01:16:40.289Z,22.72
2018-07-17T01:17:40.309Z,22.72
2018-07-17T01:18:40.239Z,22.72
2018-07-17T01:19:40.339Z,22.71
2018-07-17T01:20:40.305Z,22.72
2018-07-17T01:21:40.474Z,22.72
2018-07-17T01:22:40.334Z,22.71
2018-07-17T01:23:40.234Z,22.72
2018-07-17T01:24:40.278Z,22.72
2018-07-17T01:25:40.371Z,22.71
2018-07-17T01:26:40.269Z,22.71
2018-07-17T01:27:40.173Z,22.72
2018-07-17T01:28:40.345Z,22.71
2018-07-17T01:29:40.491Z,22.72
2018-07-17T01:30:40.415Z,22.72
2018-07-17T01:31:40.345Z,22.71
2018-07-17T01:32:51.208Z,22.71
2018-07-17T01:33:40.417Z,22.72
2018-07-17T01:34:40.153Z,22.72
2018-07-17T01:35:40.327Z,22.71
2018-07-17T01:36:40.429Z,22.72
2018-07-17T01:37:40.290Z,22.72
2018-07-17T01:38:40.327Z,22.71
2018-07-17T01:39:40.318Z,22.71
2018-07-17T01:40:40.645Z,22.71
2018-07-17T01:41:40.820Z,22.71
2018-07-17T01:42:40.449Z,22.71
2018-07-17T01:43:40.428Z,22.71
2018-07-17T01:44:40.157Z,22.72
2018-07-17T01:45:40.452Z,22.71
2018-07-17T01:46:40.382Z,22.71
2018-07-17T01:47:40.273Z,22.71
2018-07-17T01:48:40.431Z,22.71
2018-07-17T01:49:40.647Z,22.71
2018-07-17T01:50:40.530Z,22.71
2018-07-17T01:51:40.182Z,22.71
2018-07-17T01:52:40.389Z,22.71
2018-07-17T01:53:40.608Z,22.71
2018-07-17T01:54:40.333Z,22.71
2018-07-17T01:55:40.204Z,22.7
2018-07-17T01:56:40.476Z,22.7
2018-07-17T01:57:40.352Z,22.71
2018-07-17T01:58:40.302Z,22.7
2018-07-17T01:59:40.523Z,22.7
2018-07-17T02:00:40.146Z,22.7
2018-07-17T02:01:40.414Z,22.7
2018-07-17T02:02:40.312Z,22.7
2018-07-17T02:03:40.524Z,22.7
2018-07-17T02:04:40.634Z,22.7
2018-07-17T02:05:40.603Z,22.7
2018-07-17T02:06:40.347Z,22.7
2018-07-17T02:07:40.126Z,22.7
2018-07-17T02:08:40.408Z,22.7
2018-07-17T02:09:40.242Z,22.7
2018-07-17T02:10:40.216Z,22.69
2018-07-17T02:11:40.202Z,22.7
2018-07-17T02:12:40.181Z,22.7
2018-07-17T02:13:40.556Z,22.69
2018-07-17T02:14:40.139Z,22.7
2018-07-17T02:15:40.467Z,22.69
2018-07-17T02:16:40.340Z,22.69
2018-07-17T02:17:40.399Z,22.7
2018-07-17T02:18:40.422Z,22.69
2018-07-17T02:19:40.206Z,22.69
2018-07-17T02:20:40.691Z,22.69
2018-07-17T02:21:40.180Z,22.7
2018-07-17T02:22:40.406Z,22.69
2018-07-17T02:23:40.189Z,22.7
2018-07-17T02:24:40.390Z,22.69
2018-07-17T02:25:40.221Z,22.69
2018-07-17T02:26:40.558Z,22.69
2018-07-17T02:27:40.604Z,22.69
2018-07-17T02:28:40.500Z,22.69
2018-07-17T02:29:40.096Z,22.69
2018-07-17T02:30:40.130Z,22.69
2018-07-17T02:31:40.652Z,22.69
2018-07-17T02:32:40.305Z,22.69
2018-07-17T02:33:40.538Z,22.69
2018-07-17T02:34:40.215Z,22.69
2018-07-17T02:35:40.435Z,22.69
2018-07-17T02:36:40.704Z,22.69
2018-07-17T02:37:40.143Z,22.68
2018-07-17T02:38:40.283Z,22.68
2018-07-17T02:39:40.736Z,22.69
2018-07-17T02:40:40.593Z,22.69
2018-07-17T02:41:41.013Z,22.68
2018-07-17T02:42:40.226Z,22.68
2018-07-17T02:43:40.591Z,22.68
2018-07-17T02:44:40.594Z,22.68
2018-07-17T02:45:40.235Z,22.68
2018-07-17T02:46:40.099Z,22.68
2018-07-17T02:47:40.419Z,22.68
2018-07-17T02:48:40.317Z,22.68
2018-07-17T02:49:40.168Z,22.68
2018-07-17T02:50:40.447Z,22.68
2018-07-17T02:51:40.554Z,22.68
2018-07-17T02:52:40.187Z,22.68
2018-07-17T02:53:40.209Z,22.67
2018-07-17T02:54:40.215Z,22.68
2018-07-17T02:55:40.345Z,22.68
2018-07-17T02:56:40.487Z,22.68
2018-07-17T02:57:40.434Z,22.68
2018-07-17T02:58:40.124Z,22.67
2018-07-17T02:59:41.827Z,22.67
2018-07-17T03:00:40.124Z,22.68
2018-07-17T03:01:40.448Z,22.68
2018-07-17T03:02:40.402Z,22.68
2018-07-17T03:03:40.346Z,22.68
2018-07-17T03:04:40.315Z,22.67
2018-07-17T03:05:40.281Z,22.68
2018-07-17T03:06:40.393Z,22.67
2018-07-17T03:07:40.215Z,22.67
2018-07-17T03:08:40.214Z,22.67
2018-07-17T03:09:40.363Z,22.67
2018-07-17T03:10:40.199Z,22.67
2018-07-17T03:11:40.547Z,22.67
2018-07-17T03:12:40.311Z,22.67
2018-07-17T03:13:40.551Z,22.67
2018-07-17T03:15:11.755Z,22.67
2018-07-17T03:15:40.127Z,22.67
2018-07-17T03:16:40.607Z,22.67
2018-07-17T03:17:40.116Z,22.67
2018-07-17T03:18:40.146Z,22.67
2018-07-17T03:19:40.260Z,22.66
2018-07-17T03:20:40.602Z,22.66
2018-07-17T03:21:40.247Z,22.67
2018-07-17T03:22:40.152Z,22.66
2018-07-17T03:23:40.261Z,22.66
2018-07-17T03:24:50.144Z,22.66
2018-07-17T03:25:40.197Z,22.67
2018-07-17T03:26:40.209Z,22.67
2018-07-17T03:27:40.209Z,22.66
2018-07-17T03:28:40.190Z,22.65
2018-07-17T03:29:40.124Z,22.66
2018-07-17T03:30:40.201Z,22.67
2018-07-17T03:31:40.410Z,22.66
2018-07-17T03:32:40.288Z,22.67
2018-07-17T03:33:40.620Z,22.67
2018-07-17T03:34:40.285Z,22.66
2018-07-17T03:35:40.466Z,22.66
2018-07-17T03:36:40.075Z,22.66
2018-07-17T03:37:40.389Z,22.66
2018-07-17T03:38:40.437Z,22.65
2018-07-17T03:39:40.288Z,22.66
2018-07-17T03:40:40.425Z,22.66
2018-07-17T03:41:40.079Z,22.66
2018-07-17T03:42:40.285Z,22.65
2018-07-17T03:43:40.127Z,22.65
2018-07-17T03:44:40.494Z,22.65
2018-07-17T03:45:40.141Z,22.66
2018-07-17T03:46:40.650Z,22.65
2018-07-17T03:47:40.214Z,22.65
2018-07-17T03:48:40.298Z,22.65
2018-07-17T03:49:40.121Z,22.65
2018-07-17T03:50:40.646Z,22.65
2018-07-17T03:51:40.216Z,22.65
2018-07-17T03:52:40.215Z,22.65
2018-07-17T03:53:40.292Z,22.64
2018-07-17T03:54:40.515Z,22.65
2018-07-17T03:55:40.668Z,22.65
2018-07-17T03:56:40.332Z,22.65
2018-07-17T03:57:40.259Z,22.65
2018-07-17T03:58:40.270Z,22.65
2018-07-17T03:59:40.600Z,22.65
2018-07-17T04:00:40.280Z,22.64
2018-07-17T04:01:40.124Z,22.64
2018-07-17T04:02:40.334Z,22.65
2018-07-17T04:03:40.355Z,22.65
2018-07-17T04:04:40.206Z,22.65
2018-07-17T04:05:40.174Z,22.65
2018-07-17T04:06:40.275Z,22.64
2018-07-17T04:07:40.307Z,22.65
2018-07-17T04:08:40.646Z,22.64
2018-07-17T04:09:40.242Z,22.64
2018-07-17T04:10:40.099Z,22.64
2018-07-17T04:11:40.299Z,22.65
2018-07-17T04:12:40.291Z,22.64
2018-07-17T04:13:40.616Z,22.64
2018-07-17T04:14:40.610Z,22.64
2018-07-17T04:15:40.179Z,22.63
2018-07-17T04:16:40.287Z,22.64
2018-07-17T04:17:40.699Z,22.64
2018-07-17T04:18:40.597Z,22.63
2018-07-17T04:19:40.044Z,22.63
2018-07-17T04:20:40.368Z,22.64
2018-07-17T04:21:40.204Z,22.64
2018-07-17T04:22:40.164Z,22.64
2018-07-17T04:23:40.153Z,22.64
2018-07-17T04:24:40.312Z,22.64
2018-07-17T04:25:40.276Z,22.63
2018-07-17T04:26:40.094Z,22.64
2018-07-17T04:27:40.591Z,22.63
2018-07-17T04:28:40.085Z,22.63
2018-07-17T04:29:40.531Z,22.64
2018-07-17T04:30:40.091Z,22.62
2018-07-17T04:31:40.429Z,22.53
2018-07-17T04:32:40.241Z,22.52
2018-07-17T04:33:40.111Z,22.45
2018-07-17T04:34:40.327Z,22.42
2018-07-17T04:35:40.245Z,22.35
2018-07-17T04:36:40.199Z,22.26
2018-07-17T04:37:40.122Z,22.2
2018-07-17T04:38:40.172Z,22.12
2018-07-17T04:39:40.602Z,22.02
2018-07-17T04:40:40.221Z,22.03
2018-07-17T04:41:40.137Z,22.03
2018-07-17T04:42:40.294Z,22.03
2018-07-17T04:43:40.551Z,21.98
2018-07-17T04:44:40.214Z,21.88
2018-07-17T04:45:40.502Z,21.95
2018-07-17T04:46:40.069Z,21.99
2018-07-17T04:47:40.092Z,21.89
2018-07-17T04:48:40.206Z,21.79
2018-07-17T04:49:40.112Z,21.84
2018-07-17T04:50:40.313Z,21.86
2018-07-17T04:51:40.272Z,21.89
2018-07-17T04:52:40.103Z,21.94
2018-07-17T04:53:40.085Z,21.98
2018-07-17T04:54:40.270Z,22.02
2018-07-17T04:55:40.563Z,22.03
2018-07-17T04:56:40.321Z,22.06
2018-07-17T04:57:40.204Z,22.08
2018-07-17T04:58:40.385Z,22.11
2018-07-17T04:59:40.111Z,22.12
2018-07-17T05:00:40.159Z,22.14
2018-07-17T05:01:40.425Z,22.16
2018-07-17T05:02:40.068Z,22.17
2018-07-17T05:03:40.465Z,22.18
2018-07-17T05:04:40.251Z,22.2
2018-07-17T05:05:40.336Z,22.22
2018-07-17T05:06:40.239Z,22.23
2018-07-17T05:07:40.532Z,22.24
2018-07-17T05:08:40.312Z,22.26
2018-07-17T05:09:40.071Z,22.25
2018-07-17T05:10:40.341Z,22.27
2018-07-17T05:11:40.152Z,22.27
2018-07-17T05:12:40.318Z,22.28
2018-07-17T05:13:40.267Z,22.29
2018-07-17T05:14:40.208Z,22.31
2018-07-17T05:15:40.510Z,22.31
2018-07-17T05:16:40.343Z,22.31
2018-07-17T05:17:40.362Z,22.32
2018-07-17T05:18:50.194Z,22.33
2018-07-17T05:19:40.260Z,22.34
2018-07-17T05:20:40.260Z,22.34
2018-07-17T05:21:40.242Z,22.34
2018-07-17T05:22:40.227Z,22.35
2018-07-17T05:23:40.155Z,22.36
2018-07-17T05:24:40.692Z,22.35
2018-07-17T05:25:40.348Z,22.37
2018-07-17T05:26:40.329Z,22.36
2018-07-17T05:27:40.284Z,22.37
2018-07-17T05:28:40.241Z,22.37
2018-07-17T05:29:40.453Z,22.37
2018-07-17T05:30:39.997Z,22.38
2018-07-17T05:31:40.115Z,22.38
2018-07-17T05:32:40.209Z,22.38
2018-07-17T05:33:40.303Z,22.38
2018-07-17T05:34:40.322Z,22.39
2018-07-17T05:35:40.304Z,22.38
2018-07-17T05:36:40.154Z,22.39
2018-07-17T05:37:40.146Z,22.39
2018-07-17T05:38:40.602Z,22.4
2018-07-17T05:39:40.143Z,22.39
2018-07-17T05:40:40.257Z,22.4
2018-07-17T05:41:40.554Z,22.4
2018-07-17T05:42:40.227Z,22.4
2018-07-17T05:43:40.313Z,22.41
2018-07-17T05:44:40.147Z,22.4
2018-07-17T05:45:40.189Z,22.4
2018-07-17T05:46:40.126Z,22.4
2018-07-17T05:47:40.339Z,22.41
2018-07-17T05:48:40.296Z,22.41
2018-07-17T05:49:40.162Z,22.41
2018-07-17T05:50:40.251Z,22.41
2018-07-17T05:51:40.309Z,22.41
2018-07-17T05:52:40.086Z,22.42
2018-07-17T05:53:40.056Z,22.41
2018-07-17T05:54:40.171Z,22.42
2018-07-17T05:55:40.270Z,22.42
2018-07-17T05:56:40.189Z,22.41
2018-07-17T05:57:40.350Z,22.42
2018-07-17T05:58:40.250Z,22.41
2018-07-17T05:59:40.205Z,22.43
2018-07-17T06:00:40.104Z,22.42
2018-07-17T06:01:40.348Z,22.42
2018-07-17T06:02:40.342Z,22.43
2018-07-17T06:03:40.112Z,22.43
2018-07-17T06:04:40.272Z,22.43
2018-07-17T06:05:40.363Z,22.43
2018-07-17T06:06:40.297Z,22.43
2018-07-17T06:07:50.109Z,22.43
2018-07-17T06:08:40.202Z,22.43
2018-07-17T06:09:40.330Z,22.43
2018-07-17T06:10:40.271Z,22.43
2018-07-17T06:11:40.272Z,22.44
2018-07-17T06:13:03.664Z,22.44
2018-07-17T06:14:03.897Z,22.43
2018-07-17T06:15:03.476Z,22.43
2018-07-17T06:16:03.836Z,22.43
2018-07-17T06:17:03.621Z,22.44
2018-07-17T06:18:04.392Z,22.44
2018-07-17T06:19:03.750Z,22.44
2018-07-17T06:20:03.749Z,22.44
2018-07-17T06:21:03.664Z,22.44
2018-07-17T06:22:03.728Z,22.44
2018-07-17T06:23:03.740Z,22.45
2018-07-17T06:24:03.649Z,22.44
2018-07-17T06:25:03.803Z,22.45
2018-07-17T06:26:03.635Z,22.44
2018-07-17T06:27:03.733Z,22.45
2018-07-17T06:28:03.466Z,22.44
2018-07-17T06:29:03.646Z,22.45
2018-07-17T06:30:03.703Z,22.45
2018-07-17T06:31:03.809Z,22.45
2018-07-17T06:32:03.591Z,22.45
2018-07-17T06:33:03.931Z,22.44
2018-07-17T06:34:03.816Z,22.46
2018-07-17T06:35:03.783Z,22.44
2018-07-17T06:36:03.533Z,22.45
2018-07-17T06:37:03.714Z,22.45
2018-07-17T06:38:03.601Z,22.45
2018-07-17T06:39:03.592Z,22.45
2018-07-17T06:40:03.580Z,22.44
2018-07-17T06:41:03.557Z,22.45
2018-07-17T06:42:03.636Z,22.45
2018-07-17T06:43:03.657Z,22.45
2018-07-17T06:44:03.603Z,22.46
2018-07-17T06:45:03.591Z,22.46
2018-07-17T06:46:03.637Z,22.45
2018-07-17T06:47:03.535Z,22.45
2018-07-17T06:48:03.670Z,22.46
2018-07-17T06:49:03.599Z,22.45
2018-07-17T06:50:03.583Z,22.45
2018-07-17T06:51:03.711Z,22.46
2018-07-17T06:52:03.716Z,22.45
2018-07-17T06:53:03.526Z,22.46
2018-07-17T06:54:03.637Z,22.45
2018-07-17T06:55:03.718Z,22.45
2018-07-17T06:56:03.683Z,22.45
2018-07-17T06:57:03.601Z,22.45
2018-07-17T06:58:03.665Z,22.46
2018-07-17T06:59:03.952Z,22.46
2018-07-17T07:00:03.647Z,22.46
2018-07-17T07:01:03.648Z,22.46
2018-07-17T07:02:03.445Z,22.46
2018-07-17T07:03:03.564Z,22.45
2018-07-17T07:04:03.521Z,22.47
2018-07-17T07:05:03.529Z,22.46
2018-07-17T07:06:03.823Z,22.46
2018-07-17T07:07:03.539Z,22.47
2018-07-17T07:08:03.631Z,22.46
2018-07-17T07:09:03.586Z,22.46
2018-07-17T07:10:03.567Z,22.47
2018-07-17T07:11:03.505Z,22.46
2018-07-17T07:12:03.736Z,22.46
2018-07-17T07:13:03.495Z,22.47
2018-07-17T07:14:03.524Z,22.46
2018-07-17T07:15:03.635Z,22.46
2018-07-17T07:16:03.743Z,22.46
2018-07-17T07:17:03.485Z,22.46
2018-07-17T07:18:03.795Z,22.47
2018-07-17T07:19:03.486Z,22.46
2018-07-17T07:20:03.428Z,22.47
2018-07-17T07:21:03.716Z,22.47
2018-07-17T07:22:03.502Z,22.47
2018-07-17T07:23:03.561Z,22.47
2018-07-17T07:24:03.575Z,22.47
2018-07-17T07:25:03.544Z,22.47
2018-07-17T07:26:03.829Z,22.47
2018-07-17T07:27:03.673Z,22.46
2018-07-17T07:28:03.744Z,22.47
2018-07-17T07:29:03.628Z,22.47
2018-07-17T07:30:03.701Z,22.46
2018-07-17T07:31:03.666Z,22.47
2018-07-17T07:32:03.729Z,22.46
2018-07-17T07:33:03.718Z,22.47
2018-07-17T07:34:03.667Z,22.47
2018-07-17T07:35:03.616Z,22.47
2018-07-17T07:36:03.542Z,22.47
2018-07-17T07:37:03.608Z,22.46
2018-07-17T07:38:03.510Z,22.47
2018-07-17T07:39:03.626Z,22.47
2018-07-17T07:40:03.709Z,22.47
2018-07-17T07:41:03.660Z,22.47
2018-07-17T07:42:03.581Z,22.47
2018-07-17T07:43:03.747Z,22.47
2018-07-17T07:44:03.833Z,22.46
2018-07-17T07:45:03.569Z,22.47
2018-07-17T07:46:03.634Z,22.48
2018-07-17T07:47:03.457Z,22.47
2018-07-17T07:48:03.951Z,22.47
2018-07-17T07:49:03.603Z,22.48
2018-07-17T07:50:03.685Z,22.47
2018-07-17T07:51:03.446Z,22.47
2018-07-17T07:52:03.570Z,22.47
2018-07-17T07:53:03.605Z,22.48
2018-07-17T07:54:03.682Z,22.47
2018-07-17T07:55:03.670Z,22.48
2018-07-17T07:56:03.863Z,22.47
2018-07-17T07:57:03.823Z,22.47
2018-07-17T07:58:03.522Z,22.48
2018-07-17T07:59:03.657Z,22.47
2018-07-17T08:00:03.847Z,22.48
2018-07-17T08:01:03.797Z,22.47
2018-07-17T08:02:03.649Z,22.48
2018-07-17T08:03:03.800Z,22.47
2018-07-17T08:04:03.799Z,22.47
2018-07-17T08:05:03.651Z,22.47
2018-07-17T08:06:03.514Z,22.47
2018-07-17T08:07:03.623Z,22.48
2018-07-17T08:08:03.629Z,22.48
2018-07-17T08:09:03.567Z,22.47
2018-07-17T08:10:03.599Z,22.47
2018-07-17T08:11:03.620Z,22.48
2018-07-17T08:12:03.753Z,22.47
2018-07-17T08:13:03.704Z,22.48
2018-07-17T08:14:03.724Z,22.48
2018-07-17T08:15:03.736Z,22.48
2018-07-17T08:16:03.497Z,22.48
2018-07-17T08:17:03.556Z,22.47
2018-07-17T08:18:03.591Z,22.48
2018-07-17T08:19:03.557Z,22.48
2018-07-17T08:20:03.778Z,22.48
2018-07-17T08:21:03.576Z,22.48
2018-07-17T08:22:03.672Z,22.48
2018-07-17T08:23:03.411Z,22.47
2018-07-17T08:24:03.574Z,22.48
2018-07-17T08:25:03.527Z,22.48
2018-07-17T08:26:03.700Z,22.48
2018-07-17T08:27:03.428Z,22.48
2018-07-17T08:28:03.569Z,22.48
2018-07-17T08:29:03.660Z,22.47
2018-07-17T08:30:03.564Z,22.48
2018-07-17T08:31:03.631Z,22.48
2018-07-17T08:32:03.685Z,22.48
2018-07-17T08:33:03.544Z,22.48
2018-07-17T08:34:03.606Z,22.48
2018-07-17T08:35:03.670Z,22.48
2018-07-17T08:36:03.617Z,22.49
2018-07-17T08:37:03.696Z,22.48
2018-07-17T08:38:03.617Z,22.48
2018-07-17T08:39:03.512Z,22.48
2018-07-17T08:40:03.659Z,22.48
2018-07-17T08:41:03.528Z,22.48
2018-07-17T08:42:03.674Z,22.48
2018-07-17T08:43:03.427Z,22.48
2018-07-17T08:44:03.533Z,22.48
2018-07-17T08:45:03.668Z,22.48
2018-07-17T08:46:03.621Z,22.48
2018-07-17T08:47:03.578Z,22.48
2018-07-17T08:48:03.554Z,22.48
2018-07-17T08:49:03.773Z,22.48
2018-07-17T08:50:03.546Z,22.47
2018-07-17T08:51:03.660Z,22.48
2018-07-17T08:52:03.729Z,22.48
2018-07-17T08:53:03.555Z,22.48
2018-07-17T08:54:03.570Z,22.48
2018-07-17T08:55:03.582Z,22.49
2018-07-17T08:56:03.780Z,22.47
2018-07-17T08:57:03.726Z,22.49
2018-07-17T08:58:03.551Z,22.48
2018-07-17T08:59:03.661Z,22.48
2018-07-17T09:00:03.614Z,22.48
2018-07-17T09:01:03.524Z,22.48
2018-07-17T09:02:03.757Z,22.48
2018-07-17T09:03:03.574Z,22.49
2018-07-17T09:04:03.624Z,22.48
2018-07-17T09:05:03.611Z,22.49
2018-07-17T09:06:03.579Z,22.48
2018-07-17T09:07:03.529Z,22.48
2018-07-17T09:08:03.609Z,22.48
2018-07-17T09:09:03.574Z,22.48
2018-07-17T09:10:03.552Z,22.48
2018-07-17T09:11:03.570Z,22.48
2018-07-17T09:12:03.659Z,22.48
2018-07-17T09:13:03.659Z,22.49
2018-07-17T09:14:03.637Z,22.48
2018-07-17T09:15:03.607Z,22.49
2018-07-17T09:16:03.602Z,22.49
2018-07-17T09:17:03.795Z,22.48
2018-07-17T09:18:03.574Z,22.48
2018-07-17T09:19:03.517Z,22.48
2018-07-17T09:20:03.610Z,22.48
2018-07-17T09:21:03.545Z,22.48
2018-07-17T09:22:03.817Z,22.49
2018-07-17T09:23:03.612Z,22.49
2018-07-17T09:24:03.531Z,22.48
2018-07-17T09:25:03.640Z,22.48
2018-07-17T09:26:03.517Z,22.49
2018-07-17T09:27:03.643Z,22.49
2018-07-17T09:28:03.526Z,22.49
2018-07-17T09:29:03.613Z,22.49
2018-07-17T09:30:03.601Z,22.48
2018-07-17T09:31:03.614Z,22.48
2018-07-17T09:32:03.460Z,22.49
2018-07-17T09:33:03.573Z,22.49
2018-07-17T09:34:03.625Z,22.49
2018-07-17T09:35:03.776Z,22.49
2018-07-17T09:36:03.652Z,22.49
2018-07-17T09:37:03.594Z,22.49
2018-07-17T09:38:03.717Z,22.48
2018-07-17T09:39:03.727Z,22.49
2018-07-17T09:40:03.562Z,22.49
2018-07-17T09:41:03.683Z,22.49
2018-07-17T09:42:03.714Z,22.49
2018-07-17T09:43:03.584Z,22.49
2018-07-17T09:44:03.616Z,22.49
2018-07-17T09:45:03.610Z,22.5
2018-07-17T09:46:03.547Z,22.5
2018-07-17T09:47:03.491Z,22.49
2018-07-17T09:48:03.575Z,22.49
2018-07-17T09:49:03.527Z,22.49
2018-07-17T09:50:03.663Z,22.49
2018-07-17T09:51:03.572Z,22.49
2018-07-17T09:52:03.642Z,22.51
2018-07-17T09:53:03.586Z,22.49
2018-07-17T09:54:03.700Z,22.49
2018-07-17T09:55:03.538Z,22.5
2018-07-17T09:56:03.496Z,22.48
2018-07-17T09:57:03.592Z,22.5
2018-07-17T09:58:03.640Z,22.5
2018-07-17T09:59:03.621Z,22.49
2018-07-17T10:00:03.707Z,22.49
2018-07-17T10:01:03.553Z,22.49
2018-07-17T10:02:03.572Z,22.49
2018-07-17T10:03:03.651Z,22.5
2018-07-17T10:04:03.728Z,22.49
2018-07-17T10:05:03.542Z,22.5
2018-07-17T10:06:03.450Z,22.49
2018-07-17T10:07:03.652Z,22.5
2018-07-17T10:08:03.667Z,22.5
2018-07-17T10:09:03.701Z,22.49
2018-07-17T10:10:03.430Z,22.5
2018-07-17T10:11:03.547Z,22.5
2018-07-17T10:12:03.457Z,22.49
2018-07-17T10:13:03.905Z,22.5
2018-07-17T10:14:03.648Z,22.5
2018-07-17T10:15:03.444Z,22.5
2018-07-17T10:16:03.677Z,22.5
2018-07-17T10:17:03.750Z,22.5
2018-07-17T10:18:03.573Z,22.49
2018-07-17T10:19:03.624Z,22.5
2018-07-17T10:20:03.581Z,22.48
2018-07-17T10:21:03.549Z,22.5
2018-07-17T10:22:03.651Z,22.5
2018-07-17T10:23:03.859Z,22.49
2018-07-17T10:24:03.408Z,22.5
2018-07-17T10:25:03.585Z,22.5
2018-07-17T10:26:03.585Z,22.5
2018-07-17T10:27:03.521Z,22.5
2018-07-17T10:28:03.731Z,22.49
2018-07-17T10:29:03.540Z,22.49
2018-07-17T10:30:03.621Z,22.5
2018-07-17T10:31:03.570Z,22.5
2018-07-17T10:32:03.654Z,22.49
2018-07-17T10:33:03.427Z,22.49
2018-07-17T10:34:03.650Z,22.49
2018-07-17T10:35:03.568Z,22.5
2018-07-17T10:36:03.506Z,22.49
2018-07-17T10:37:03.598Z,22.49
2018-07-17T10:38:03.640Z,22.5
2018-07-17T10:39:03.610Z,22.5
2018-07-17T10:40:03.719Z,22.49
2018-07-17T10:41:03.577Z,22.5
2018-07-17T10:42:03.473Z,22.5
2018-07-17T10:43:03.660Z,22.5
2018-07-17T10:44:03.566Z,22.5
2018-07-17T10:45:03.697Z,22.5
2018-07-17T10:46:03.615Z,22.5
2018-07-17T10:47:03.588Z,22.49
2018-07-17T10:48:03.618Z,22.49
2018-07-17T10:49:03.680Z,22.49
2018-07-17T10:50:03.780Z,22.49
2018-07-17T10:51:03.647Z,22.5
2018-07-17T10:52:03.469Z,22.49
2018-07-17T10:53:03.722Z,22.49
2018-07-17T10:54:03.677Z,22.5
2018-07-17T10:55:03.476Z,22.49
2018-07-17T10:56:03.734Z,22.5
2018-07-17T10:57:03.597Z,22.5
2018-07-17T10:58:03.655Z,22.51
2018-07-17T10:59:03.483Z,22.49
2018-07-17T11:00:03.880Z,22.5
2018-07-17T11:01:03.745Z,22.5
2018-07-17T11:02:03.554Z,22.5
2018-07-17T11:03:03.706Z,22.5
2018-07-17T11:04:03.845Z,22.5
2018-07-17T11:05:03.611Z,22.5
2018-07-17T11:06:03.444Z,22.5
2018-07-17T11:07:03.458Z,22.5
2018-07-17T11:08:03.595Z,22.49
2018-07-17T11:09:03.442Z,22.5
2018-07-17T11:10:03.541Z,22.5
2018-07-17T11:11:03.749Z,22.5
2018-07-17T11:12:03.605Z,22.51
2018-07-17T11:13:03.557Z,22.54
2018-07-17T11:14:03.720Z,22.54
2018-07-17T11:15:03.606Z,22.54
2018-07-17T11:16:03.560Z,22.55
2018-07-17T11:17:03.608Z,22.56
2018-07-17T11:18:03.592Z,22.56
2018-07-17T11:19:03.612Z,22.56
2018-07-17T11:20:03.578Z,22.57
2018-07-17T11:21:03.520Z,22.58
2018-07-17T11:22:03.622Z,22.59
2018-07-17T11:23:03.760Z,22.59
2018-07-17T11:24:03.690Z,22.61
2018-07-17T11:25:03.610Z,22.58
2018-07-17T11:26:03.619Z,22.58
2018-07-17T11:27:03.387Z,22.59
2018-07-17T11:28:03.575Z,22.57
2018-07-17T11:29:03.499Z,22.58
2018-07-17T11:30:03.495Z,22.62
2018-07-17T11:31:03.706Z,22.62
2018-07-17T11:32:03.657Z,22.61
2018-07-17T11:33:03.606Z,22.64
2018-07-17T11:34:03.678Z,22.65
2018-07-17T11:35:03.680Z,22.66
2018-07-17T11:36:13.654Z,22.67
2018-07-17T11:37:03.777Z,22.68
2018-07-17T11:38:03.756Z,22.65
2018-07-17T11:39:03.812Z,22.66
2018-07-17T11:40:03.544Z,22.67
2018-07-17T11:41:03.503Z,22.65
2018-07-17T11:42:03.521Z,22.66
2018-07-17T11:43:03.759Z,22.65
2018-07-17T11:44:03.716Z,22.66
2018-07-17T11:45:03.559Z,22.64
2018-07-17T11:46:03.489Z,22.65
2018-07-17T11:47:03.668Z,22.64
2018-07-17T11:48:03.782Z,22.64
2018-07-17T11:49:03.502Z,22.63
2018-07-17T11:50:03.441Z,22.61
2018-07-17T11:51:03.608Z,22.63
2018-07-17T11:52:03.573Z,22.62
2018-07-17T11:53:03.639Z,22.61
2018-07-17T11:54:03.713Z,22.61
2018-07-17T11:55:03.787Z,22.62
2018-07-17T11:56:03.675Z,22.61
2018-07-17T11:57:03.669Z,22.61
2018-07-17T11:58:03.604Z,22.61
2018-07-17T11:59:03.759Z,22.59
2018-07-17T12:00:03.669Z,22.61
2018-07-17T12:01:03.648Z,22.61
2018-07-17T12:02:03.566Z,22.6
2018-07-17T12:03:03.493Z,22.6
2018-07-17T12:04:03.660Z,22.59
2018-07-17T12:05:03.539Z,22.6
2018-07-17T12:06:03.574Z,22.6
2018-07-17T12:07:03.510Z,22.6
2018-07-17T12:08:03.629Z,22.59
2018-07-17T12:09:03.524Z,22.58
2018-07-17T12:10:03.713Z,22.6
2018-07-17T12:11:03.446Z,22.58
2018-07-17T12:12:03.432Z,22.59
2018-07-17T12:13:03.634Z,22.59
2018-07-17T12:14:03.656Z,22.59
2018-07-17T12:15:03.661Z,22.59
2018-07-17T12:16:03.687Z,22.59
2018-07-17T12:17:03.576Z,22.58
2018-07-17T12:18:03.579Z,22.58
2018-07-17T12:19:03.661Z,22.59
2018-07-17T12:20:03.655Z,22.58
2018-07-17T12:21:03.402Z,22.59
2018-07-17T12:22:03.469Z,22.58
2018-07-17T12:23:03.638Z,22.58
2018-07-17T12:24:03.504Z,22.59
2018-07-17T12:25:03.512Z,22.59
2018-07-17T12:26:03.507Z,22.59
2018-07-17T12:27:03.719Z,22.59
2018-07-17T12:28:03.712Z,22.58
2018-07-17T12:29:03.524Z,22.58
2018-07-17T12:30:03.434Z,22.59
2018-07-17T12:31:03.774Z,22.58
2018-07-17T12:32:03.730Z,22.58
2018-07-17T12:33:03.657Z,22.59
2018-07-17T12:34:03.603Z,22.58
2018-07-17T12:35:03.739Z,22.59
2018-07-17T12:36:03.527Z,22.59
2018-07-17T12:37:03.775Z,22.58
2018-07-17T12:38:03.560Z,22.58
2018-07-17T12:39:03.409Z,22.58
2018-07-17T12:40:03.617Z,22.58
2018-07-17T12:41:03.643Z,22.59
2018-07-17T12:42:03.523Z,22.59
2018-07-17T12:43:03.551Z,22.6
2018-07-17T12:44:03.525Z,22.58
2018-07-17T12:45:03.535Z,22.59
2018-07-17T12:46:03.669Z,22.59
2018-07-17T12:47:03.501Z,22.58
2018-07-17T12:48:03.380Z,22.58
2018-07-17T12:49:03.908Z,22.58
2018-07-17T12:50:03.721Z,22.58
2018-07-17T12:51:03.552Z,22.6
2018-07-17T12:52:03.566Z,22.59
2018-07-17T12:53:03.563Z,22.58
2018-07-17T12:54:03.545Z,22.58
2018-07-17T12:55:03.551Z,22.58
2018-07-17T12:56:03.730Z,22.57